Flight Track Log - Related Links

Times and Time Zones

All times are in EDT time to prevent confusion due to time zone crossing. See the N925AE flight status page for this flight to view local times or setup timezone preferences in your user account.

Time Position Orientation Groundspeed Altitude Reporting Facility
EDT Latitude Longitude Course Direction KTS MPH feet Rate Location/Type
Fri 04:16:46 PM 32.9167 -97.0333 84° East 133 153 1,400  Level Dallas / Fort Worth TRACON
Fri 04:17:17 PM 32.9333 -97.0167 40° Northeast 175 201 2,300 2,149 Climbing Dallas / Fort Worth TRACON
Fri 04:19:14 PM 33.0183 -96.9625 28° Northeast 195 224 6,700 1,898 Climbing Fort Worth Center
Fri 04:20:00 PM 32.7020 -96.6844 77° East  Level FlightAware Approximate
Fri 04:20:14 PM 33.0056 -96.8833 101° East 211 243 7,900  Level Fort Worth Center
Fri 04:21:00 PM 32.7273 -96.5488 77° East  Level FlightAware Approximate
Fri 04:21:14 PM 32.9633 -96.7919 119° Southeast 262 302 10,300  Level Fort Worth Center
Fri 04:22:00 PM 32.7422 -96.4111 84° East  Level FlightAware Approximate
Fri 04:22:14 PM 32.9233 -96.7006 118° Southeast 297 342 11,600  Level Fort Worth Center
Fri 04:23:14 PM 32.8789 -96.5997 118° Southeast 338 389 13,200 1,550 Climbing Fort Worth Center
Fri 04:24:14 PM 32.8386 -96.5083 118° Southeast 344 396 14,700 1,550 Climbing Fort Worth Center
Fri 04:25:14 PM 32.7853 -96.3903 118° Southeast 350 403 16,300 1,350 Climbing Fort Worth Center
Fri 04:26:14 PM 32.7533 -96.2919 111° Southeast 350 403 17,400 1,350 Climbing Fort Worth Center
Fri 04:27:14 PM 32.7311 -96.1539 101° East 376 433 19,000 1,500 Climbing Fort Worth Center
Fri 04:28:14 PM 32.7153 -96.0406 99° East 389 448 20,400 1,500 Climbing Fort Worth Center
Fri 04:29:14 PM 32.6928 -95.9003 101° East 389 448 22,000 1,450 Climbing Fort Worth Center
Fri 04:30:14 PM 32.6725 -95.7822 102° East 389 448 23,300 1,450 Climbing Fort Worth Center
Fri 04:31:14 PM 32.6558 -95.6344 98° East 394 453 24,900 1,350 Climbing Fort Worth Center
Fri 04:32:14 PM 32.6625 -95.5083 86° East 408 470 26,000 1,250 Climbing Fort Worth Center
Fri 04:33:14 PM 32.6728 -95.3700 85° East 408 470 27,400 1,350 Climbing Fort Worth Center
Fri 04:34:14 PM 32.6808 -95.2339 86° East 413 475 28,700 1,300 Climbing Fort Worth Center
Fri 04:35:14 PM 32.6911 -95.0956 85° East 413 475 30,000 1,250 Climbing Fort Worth Center
Fri 04:36:14 PM 32.6989 -94.9572 86° East 418 481 31,200 1,150 Climbing Fort Worth Center
Fri 04:37:14 PM 32.7064 -94.8161 86° East 424 488 32,300 1,050 Climbing Fort Worth Center
Fri 04:38:14 PM 32.6767 -94.6861 105° East 411 473 33,300 1,050 Climbing Fort Worth Center
Fri 04:39:14 PM 32.6319 -94.5594 113° Southeast 406 467 34,400 850 Climbing Fort Worth Center
Fri 04:40:14 PM 32.5894 -94.4350 112° Southeast 406 467 35,000 300 Climbing Fort Worth Center
Fri 04:41:14 PM 32.5444 -94.3058 112° Southeast 412 474 35,000  Level Fort Worth Center
Fri 04:42:14 PM 32.5033 -94.1594 108° East 434 499 35,000  Level Fort Worth Center
Fri 04:43:14 PM 32.4569 -93.9911 108° East 472 543 35,000 400 Level Fort Worth Center
Fri 04:44:14 PM 32.4131 -93.8378 109° East 482 555 35,800 719 Climbing Fort Worth Center
Fri 04:46:01 PM 32.3442 -93.6008 109° East 470 541 37,000 426 Climbing Houston Center
Fri 04:47:03 PM 32.3011 -93.4561 109° East 466 536 37,000  Level Houston Center
Fri 04:48:05 PM 32.2525 -93.2878 109° East 454 522 37,000  Level Houston Center
Fri 04:49:07 PM 32.2111 -93.1517 110° East 443 510 37,000  Level Houston Center
Fri 04:50:09 PM 32.1706 -93.0156 109° East 441 507 37,000  Level Houston Center
Fri 04:51:11 PM 32.1286 -92.8758 109° East 448 516 37,000  Level Houston Center
Fri 04:52:13 PM 32.0850 -92.7314 110° East 460 529 37,000 -48 Level Houston Center
Fri 04:53:15 PM 32.0397 -92.5842 110° East 459 528 36,900  Descending Houston Center
Fri 04:54:17 PM 31.9983 -92.4453 109° East 452 520 37,000 48 Climbing Houston Center
Fri 04:55:19 PM 31.9561 -92.3075 110° East 448 516 37,000  Level Houston Center
Fri 04:56:21 PM 31.9042 -92.1419 110° East 449 517 37,000  Level Houston Center
Fri 04:57:23 PM 31.8619 -92.0056 110° East 452 520 37,000  Level Houston Center
Fri 04:58:25 PM 31.8183 -91.8656 110° East 454 522 37,000  Level Houston Center
Fri 04:59:27 PM 31.7753 -91.7242 110° East 456 525 37,000  Level Houston Center
Fri 05:00:29 PM 31.7300 -91.5797 110° East 464 534 37,000  Level Houston Center
Fri 05:01:31 PM 31.6833 -91.4350 111° Southeast 469 540 37,000  Level Houston Center
Fri 05:02:33 PM 31.6306 -91.2647 110° East 466 536 37,000  Level Houston Center
Fri 05:03:35 PM 31.5850 -91.1244 111° Southeast 463 533 37,000  Level Houston Center
Fri 05:04:37 PM 31.5403 -90.9867 111° Southeast 457 526 37,000  Level Houston Center
Fri 05:05:39 PM 31.4950 -90.8494 111° Southeast 453 521 37,000  Level Houston Center
Fri 05:06:41 PM 31.4494 -90.7100 111° Southeast 457 526 37,000  Level Houston Center
Fri 05:07:43 PM 31.4058 -90.5697 110° East 457 526 37,000  Level Houston Center
Fri 05:08:45 PM 31.3556 -90.4103 110° East 440 506 37,000  Level Houston Center
Fri 05:09:47 PM 31.3119 -90.2814 112° Southeast 430 495 37,000  Level Houston Center
Fri 05:10:49 PM 31.2789 -90.1450 106° East 433 498 37,000  Level Houston Center
Fri 05:11:51 PM 31.2517 -90.0000 102° East 448 516 37,000  Level Houston Center
Fri 05:12:53 PM 31.2222 -89.8561 103° East 453 521 37,000  Level Houston Center
Fri 05:13:55 PM 31.1908 -89.7081 104° East 465 535 37,000  Level Houston Center
Fri 05:14:57 PM 31.1600 -89.5564 103° East 475 547 37,000  Level Houston Center
Fri 05:15:59 PM 31.1222 -89.3750 104° East 476 548 37,000  Level Houston Center
Fri 05:17:01 PM 31.0903 -89.2258 104° East 472 543 37,000 -48 Level Houston Center
Fri 05:18:03 PM 31.0578 -89.0753 104° East 476 548 36,900  Descending Houston Center
Fri 05:19:04 PM 31.0242 -88.9222 104° East 467 537 37,000 49 Climbing Houston Center
Fri 05:20:06 PM 30.9922 -88.7781 104° East 463 533 37,000 -290 Level Houston Center
Fri 05:21:08 PM 30.9617 -88.6358 104° East 456 525 36,400 -1,016 Descending Houston Center
Fri 05:22:10 PM 30.9319 -88.4953 104° East 461 531 34,900 -2,081 Descending Houston Center
Fri 05:23:12 PM 30.8931 -88.3186 104° East 467 537 32,100 -2,468 Descending Houston Center
Fri 05:24:14 PM 30.8594 -88.1686 105° East 476 548 29,800 -2,226 Descending Houston Center
Fri 05:25:16 PM 30.8278 -88.0183 104° East 478 550 27,500 -2,177 Descending Houston Center
Fri 05:26:18 PM 30.7942 -87.8706 105° East 475 547 25,300 -1,907 Descending Houston Center
Fri 05:27:03 PM 30.7683 -87.7614 105° East 464 534 24,100 -914 Descending Jacksonville Center
Fri 05:28:03 PM 30.7719 -87.6117 88° East 454 522 23,700 -1,500 Descending Jacksonville Center
Fri 05:29:03 PM 30.7814 -87.4647 86° East 454 522 21,100 -3,050 Descending Jacksonville Center
Fri 05:30:03 PM 30.7908 -87.3178 86° East 454 522 17,600 -3,350 Descending Jacksonville Center
Fri 05:31:03 PM 30.7994 -87.1875 86° East 436 502 14,400 -3,100 Descending Jacksonville Center
Fri 05:32:03 PM 30.8081 -87.0597 85° East 416 479 11,400 -1,700 Descending Jacksonville Center
Fri 05:33:03 PM 30.8117 -86.9461 88° East 381 438 11,000 -850 Descending Jacksonville Center
Fri 05:34:03 PM 30.8186 -86.8547 85° East 326 375 9,700 -1,700 Descending Jacksonville Center
Fri 05:35:03 PM 30.8236 -86.7581 87° East 298 343 7,600 -2,000 Descending Jacksonville Center
Fri 05:36:03 PM 30.8036 -86.6678 104° East 287 330 5,700 -1,700 Descending Jacksonville Center
Fri 05:37:03 PM 30.7683 -86.5842 116° Southeast 287 330 4,200 -1,100 Descending Jacksonville Center
Fri 05:38:03 PM 30.7392 -86.5106 115° Southeast 266 306 3,500 -700 Descending Jacksonville Center
Fri 05:39:03 PM 30.7053 -86.4561 126° Southeast 238 274 2,800 -700 Descending Jacksonville Center

Login

Don't have an account? Register now (free) for customized features, flight alerts, and more!